Terminal Aerodrome Forecast
Issued by NWS

Home | Current Version | Previous Version | Text Only | Print | Product List | Glossary Off
Versions: 1 2 3 4 5 6 7 8 9 10 11 12 13 14 15 16 17 18 19

000
FTUS43 KICT 231738 AAA
TAFRSL
TAF AMD
KRSL 231738Z 2318/2418 17015G22KT P6SM SCT030 BKN050
     FM240000 17012KT P6SM SCT030 BKN080
     FM240300 15010KT P6SM VCTS BKN030CB
     FM240900 16011KT P6SM VCTS BKN014CB
     FM241200 15005KT P6SM BKN015=

USA.gov is the U.S. government's official web portal to all federal, state and local government web resources and services.